sensor_id;sensor_type;location;lat;lon;timestamp;P1;durP1;ratioP1;P2;durP2;ratioP2
30287;SDS011;17103;48.316;11.558;2023-03-26T00:01:47;2.88;;;0.45;;
30287;SDS011;17103;48.316;11.558;2023-03-26T00:04:14;2.15;;;0.50;;
30287;SDS011;17103;48.316;11.558;2023-03-26T00:06:44;2.92;;;0.43;;
30287;SDS011;17103;48.316;11.558;2023-03-26T00:09:13;2.50;;;0.50;;
30287;SDS011;17103;48.316;11.558;2023-03-26T00:11:40;1.00;;;0.30;;
30287;SDS011;17103;48.316;11.558;2023-03-26T00:14:06;1.15;;;0.30;;
30287;SDS011;17103;48.316;11.558;2023-03-26T00:16:33;1.13;;;0.30;;
30287;SDS011;17103;48.316;11.558;2023-03-26T00:18:59;2.08;;;0.52;;
30287;SDS011;17103;48.316;11.558;2023-03-26T00:21:26;2.15;;;0.50;;
30287;SDS011;17103;48.316;11.558;2023-03-26T00:23:54;2.25;;;0.43;;
30287;SDS011;17103;48.316;11.558;2023-03-26T00:26:23;1.35;;;0.50;;
30287;SDS011;17103;48.316;11.558;2023-03-26T00:28:50;2.25;;;0.73;;
30287;SDS011;17103;48.316;11.558;2023-03-26T00:31:16;1.77;;;0.43;;
30287;SDS011;17103;48.316;11.558;2023-03-26T00:33:42;2.70;;;0.50;;
30287;SDS011;17103;48.316;11.558;2023-03-26T00:36:12;1.45;;;0.50;;
30287;SDS011;17103;48.316;11.558;2023-03-26T00:38:41;1.52;;;0.90;;
30287;SDS011;17103;48.316;11.558;2023-03-26T00:41:09;1.02;;;0.40;;
30287;SDS011;17103;48.316;11.558;2023-03-26T00:43:47;1.58;;;0.50;;
30287;SDS011;17103;48.316;11.558;2023-03-26T00:46:13;1.23;;;0.28;;
30287;SDS011;17103;48.316;11.558;2023-03-26T00:48:41;2.28;;;0.30;;
30287;SDS011;17103;48.316;11.558;2023-03-26T00:51:07;0.40;;;0.17;;
30287;SDS011;17103;48.316;11.558;2023-03-26T00:53:35;3.05;;;0.40;;
30287;SDS011;17103;48.316;11.558;2023-03-26T00:56:03;3.75;;;0.40;;
30287;SDS011;17103;48.316;11.558;2023-03-26T00:58:29;2.28;;;0.30;;
30287;SDS011;17103;48.316;11.558;2023-03-26T01:00:57;1.88;;;0.40;;
30287;SDS011;17103;48.316;11.558;2023-03-26T01:03:27;2.03;;;0.75;;
30287;SDS011;17103;48.316;11.558;2023-03-26T01:11:15;1.58;;;0.30;;
30287;SDS011;17103;48.316;11.558;2023-03-26T01:13:49;1.90;;;0.32;;
30287;SDS011;17103;48.316;11.558;2023-03-26T01:16:34;0.38;;;0.28;;
30287;SDS011;17103;48.316;11.558;2023-03-26T01:19:32;3.30;;;0.40;;
30287;SDS011;17103;48.316;11.558;2023-03-26T01:22:17;1.55;;;0.50;;
30287;SDS011;17103;48.316;11.558;2023-03-26T01:24:49;1.48;;;0.45;;
30287;SDS011;17103;48.316;11.558;2023-03-26T01:32:49;2.70;;;0.45;;
30287;SDS011;17103;48.316;11.558;2023-03-26T01:35:43;7.47;;;0.47;;
30287;SDS011;17103;48.316;11.558;2023-03-26T01:38:37;5.32;;;0.55;;
30287;SDS011;17103;48.316;11.558;2023-03-26T01:43:54;3.60;;;0.55;;
30287;SDS011;17103;48.316;11.558;2023-03-26T01:46:26;1.50;;;0.30;;
30287;SDS011;17103;48.316;11.558;2023-03-26T01:48:54;2.58;;;0.65;;
30287;SDS011;17103;48.316;11.558;2023-03-26T01:51:28;1.08;;;0.30;;
30287;SDS011;17103;48.316;11.558;2023-03-26T01:53:55;1.80;;;0.30;;
30287;SDS011;17103;48.316;11.558;2023-03-26T01:59:47;1.92;;;0.60;;
30287;SDS011;17103;48.316;11.558;2023-03-26T02:02:47;2.35;;;0.63;;
30287;SDS011;17103;48.316;11.558;2023-03-26T02:08:44;1.95;;;0.55;;
30287;SDS011;17103;48.316;11.558;2023-03-26T02:11:22;2.15;;;0.50;;
30287;SDS011;17103;48.316;11.558;2023-03-26T02:13:48;2.80;;;0.50;;
30287;SDS011;17103;48.316;11.558;2023-03-26T02:16:15;1.65;;;0.38;;
30287;SDS011;17103;48.316;11.558;2023-03-26T02:18:44;2.85;;;0.50;;
30287;SDS011;17103;48.316;11.558;2023-03-26T02:21:15;2.20;;;0.28;;
30287;SDS011;17103;48.316;11.558;2023-03-26T02:26:11;1.45;;;0.40;;
30287;SDS011;17103;48.316;11.558;2023-03-26T02:28:38;4.65;;;0.55;;
30287;SDS011;17103;48.316;11.558;2023-03-26T02:31:03;2.90;;;0.90;;
30287;SDS011;17103;48.316;11.558;2023-03-26T02:33:30;1.27;;;0.40;;
30287;SDS011;17103;48.316;11.558;2023-03-26T02:35:57;3.47;;;0.55;;
30287;SDS011;17103;48.316;11.558;2023-03-26T02:38:25;3.17;;;0.60;;
30287;SDS011;17103;48.316;11.558;2023-03-26T02:40:52;3.33;;;0.85;;
30287;SDS011;17103;48.316;11.558;2023-03-26T02:43:18;2.80;;;0.40;;
30287;SDS011;17103;48.316;11.558;2023-03-26T02:45:44;2.65;;;0.40;;
30287;SDS011;17103;48.316;11.558;2023-03-26T02:48:10;3.28;;;0.43;;
30287;SDS011;17103;48.316;11.558;2023-03-26T02:50:36;1.35;;;0.40;;
30287;SDS011;17103;48.316;11.558;2023-03-26T02:53:02;4.20;;;0.55;;
30287;SDS011;17103;48.316;11.558;2023-03-26T02:55:27;3.50;;;0.50;;
30287;SDS011;17103;48.316;11.558;2023-03-26T02:57:53;5.57;;;0.60;;
30287;SDS011;17103;48.316;11.558;2023-03-26T03:00:19;1.23;;;0.40;;
30287;SDS011;17103;48.316;11.558;2023-03-26T03:02:47;5.22;;;0.82;;
30287;SDS011;17103;48.316;11.558;2023-03-26T03:05:14;2.38;;;0.47;;
30287;SDS011;17103;48.316;11.558;2023-03-26T03:07:42;3.05;;;0.60;;
30287;SDS011;17103;48.316;11.558;2023-03-26T03:10:11;1.98;;;0.43;;
30287;SDS011;17103;48.316;11.558;2023-03-26T03:12:38;2.17;;;1.10;;
30287;SDS011;17103;48.316;11.558;2023-03-26T03:15:05;1.88;;;0.32;;
30287;SDS011;17103;48.316;11.558;2023-03-26T03:17:31;2.78;;;0.35;;
30287;SDS011;17103;48.316;11.558;2023-03-26T03:19:57;1.05;;;0.30;;
30287;SDS011;17103;48.316;11.558;2023-03-26T03:22:23;3.53;;;1.00;;
30287;SDS011;17103;48.316;11.558;2023-03-26T03:24:48;2.67;;;0.60;;
30287;SDS011;17103;48.316;11.558;2023-03-26T03:27:16;0.47;;;0.30;;
30287;SDS011;17103;48.316;11.558;2023-03-26T03:29:47;2.97;;;1.17;;
30287;SDS011;17103;48.316;11.558;2023-03-26T03:32:13;2.30;;;0.50;;
30287;SDS011;17103;48.316;11.558;2023-03-26T03:34:38;6.25;;;1.23;;
30287;SDS011;17103;48.316;11.558;2023-03-26T03:37:06;3.72;;;0.50;;
30287;SDS011;17103;48.316;11.558;2023-03-26T03:39:32;1.20;;;0.50;;
30287;SDS011;17103;48.316;11.558;2023-03-26T03:41:57;2.63;;;0.30;;
30287;SDS011;17103;48.316;11.558;2023-03-26T03:44:23;2.08;;;0.45;;
30287;SDS011;17103;48.316;11.558;2023-03-26T03:46:48;1.98;;;1.35;;
30287;SDS011;17103;48.316;11.558;2023-03-26T03:49:18;1.77;;;0.50;;
30287;SDS011;17103;48.316;11.558;2023-03-26T03:51:43;3.55;;;0.40;;
30287;SDS011;17103;48.316;11.558;2023-03-26T03:54:09;2.95;;;0.40;;
30287;SDS011;17103;48.316;11.558;2023-03-26T03:56:34;2.42;;;0.50;;
30287;SDS011;17103;48.316;11.558;2023-03-26T03:59:02;2.55;;;0.75;;
30287;SDS011;17103;48.316;11.558;2023-03-26T04:01:28;1.35;;;0.40;;
30287;SDS011;17103;48.316;11.558;2023-03-26T04:03:55;3.22;;;0.40;;
30287;SDS011;17103;48.316;11.558;2023-03-26T04:06:21;2.67;;;0.30;;
30287;SDS011;17103;48.316;11.558;2023-03-26T04:08:49;3.40;;;0.82;;
30287;SDS011;17103;48.316;11.558;2023-03-26T04:11:18;1.52;;;0.30;;
30287;SDS011;17103;48.316;11.558;2023-03-26T04:13:44;1.92;;;0.45;;
30287;SDS011;17103;48.316;11.558;2023-03-26T04:16:10;2.15;;;0.40;;
30287;SDS011;17103;48.316;11.558;2023-03-26T04:18:35;3.45;;;0.60;;
30287;SDS011;17103;48.316;11.558;2023-03-26T04:21:03;3.30;;;0.65;;
30287;SDS011;17103;48.316;11.558;2023-03-26T04:23:30;3.40;;;0.90;;
30287;SDS011;17103;48.316;11.558;2023-03-26T04:25:56;4.13;;;1.02;;
30287;SDS011;17103;48.316;11.558;2023-03-26T04:28:28;1.83;;;0.40;;
30287;SDS011;17103;48.316;11.558;2023-03-26T04:30:55;2.58;;;0.40;;
30287;SDS011;17103;48.316;11.558;2023-03-26T04:33:26;5.47;;;0.60;;
30287;SDS011;17103;48.316;11.558;2023-03-26T04:35:54;2.90;;;0.43;;
30287;SDS011;17103;48.316;11.558;2023-03-26T04:38:25;6.38;;;0.70;;
30287;SDS011;17103;48.316;11.558;2023-03-26T04:40:51;1.40;;;0.30;;
30287;SDS011;17103;48.316;11.558;2023-03-26T04:43:17;3.78;;;0.40;;
30287;SDS011;17103;48.316;11.558;2023-03-26T04:45:43;1.58;;;0.50;;
30287;SDS011;17103;48.316;11.558;2023-03-26T04:48:11;2.30;;;0.50;;
30287;SDS011;17103;48.316;11.558;2023-03-26T04:50:39;1.75;;;0.60;;
30287;SDS011;17103;48.316;11.558;2023-03-26T04:53:08;2.90;;;0.90;;
30287;SDS011;17103;48.316;11.558;2023-03-26T04:55:49;2.38;;;0.50;;
30287;SDS011;17103;48.316;11.558;2023-03-26T04:58:19;3.30;;;0.50;;
30287;SDS011;17103;48.316;11.558;2023-03-26T05:00:46;2.60;;;0.60;;
30287;SDS011;17103;48.316;11.558;2023-03-26T05:03:13;3.55;;;0.35;;
30287;SDS011;17103;48.316;11.558;2023-03-26T05:05:39;2.38;;;0.40;;
30287;SDS011;17103;48.316;11.558;2023-03-26T05:08:05;2.00;;;0.28;;
30287;SDS011;17103;48.316;11.558;2023-03-26T05:10:31;2.80;;;0.30;;
30287;SDS011;17103;48.316;11.558;2023-03-26T05:12:56;2.30;;;0.55;;
30287;SDS011;17103;48.316;11.558;2023-03-26T05:15:22;2.25;;;0.50;;
30287;SDS011;17103;48.316;11.558;2023-03-26T05:17:48;2.58;;;0.30;;
30287;SDS011;17103;48.316;11.558;2023-03-26T05:20:18;1.92;;;0.30;;
30287;SDS011;17103;48.316;11.558;2023-03-26T05:22:52;2.22;;;0.57;;
30287;SDS011;17103;48.316;11.558;2023-03-26T05:25:17;2.15;;;0.30;;
30287;SDS011;17103;48.316;11.558;2023-03-26T05:27:44;1.75;;;0.40;;
30287;SDS011;17103;48.316;11.558;2023-03-26T05:30:12;3.58;;;0.65;;
30287;SDS011;17103;48.316;11.558;2023-03-26T05:32:42;2.30;;;0.40;;
30287;SDS011;17103;48.316;11.558;2023-03-26T05:35:08;5.30;;;0.77;;
30287;SDS011;17103;48.316;11.558;2023-03-26T05:37:34;1.90;;;0.47;;
30287;SDS011;17103;48.316;11.558;2023-03-26T05:40:02;2.45;;;0.60;;
30287;SDS011;17103;48.316;11.558;2023-03-26T05:42:28;1.88;;;0.73;;
30287;SDS011;17103;48.316;11.558;2023-03-26T05:44:53;5.03;;;0.47;;
30287;SDS011;17103;48.316;11.558;2023-03-26T05:47:19;2.97;;;0.82;;
30287;SDS011;17103;48.316;11.558;2023-03-26T05:49:45;1.20;;;0.45;;
30287;SDS011;17103;48.316;11.558;2023-03-26T05:52:10;2.35;;;0.43;;
30287;SDS011;17103;48.316;11.558;2023-03-26T05:54:40;5.15;;;0.50;;
30287;SDS011;17103;48.316;11.558;2023-03-26T05:57:06;4.55;;;0.82;;
30287;SDS011;17103;48.316;11.558;2023-03-26T05:59:33;2.38;;;0.60;;
30287;SDS011;17103;48.316;11.558;2023-03-26T06:01:58;6.68;;;0.95;;
30287;SDS011;17103;48.316;11.558;2023-03-26T06:04:24;2.70;;;0.68;;
30287;SDS011;17103;48.316;11.558;2023-03-26T06:06:49;3.15;;;0.70;;
30287;SDS011;17103;48.316;11.558;2023-03-26T06:09:16;4.40;;;0.70;;
30287;SDS011;17103;48.316;11.558;2023-03-26T06:11:42;3.58;;;0.63;;
30287;SDS011;17103;48.316;11.558;2023-03-26T06:14:08;2.40;;;0.80;;
30287;SDS011;17103;48.316;11.558;2023-03-26T06:16:34;3.88;;;0.85;;
30287;SDS011;17103;48.316;11.558;2023-03-26T06:18:59;3.80;;;0.60;;
30287;SDS011;17103;48.316;11.558;2023-03-26T06:21:25;2.63;;;0.68;;
30287;SDS011;17103;48.316;11.558;2023-03-26T06:23:52;2.28;;;0.50;;
30287;SDS011;17103;48.316;11.558;2023-03-26T06:26:18;2.08;;;0.80;;
30287;SDS011;17103;48.316;11.558;2023-03-26T06:28:44;1.10;;;0.43;;
30287;SDS011;17103;48.316;11.558;2023-03-26T06:31:09;4.50;;;0.98;;
30287;SDS011;17103;48.316;11.558;2023-03-26T06:33:36;3.03;;;0.65;;
30287;SDS011;17103;48.316;11.558;2023-03-26T06:36:03;3.38;;;0.88;;
30287;SDS011;17103;48.316;11.558;2023-03-26T06:38:30;2.72;;;0.45;;
30287;SDS011;17103;48.316;11.558;2023-03-26T06:41:05;2.80;;;0.90;;
30287;SDS011;17103;48.316;11.558;2023-03-26T06:43:31;2.55;;;0.65;;
30287;SDS011;17103;48.316;11.558;2023-03-26T06:45:59;3.40;;;0.88;;
30287;SDS011;17103;48.316;11.558;2023-03-26T06:48:25;3.90;;;0.70;;
30287;SDS011;17103;48.316;11.558;2023-03-26T06:50:50;1.23;;;0.40;;
30287;SDS011;17103;48.316;11.558;2023-03-26T06:53:16;3.60;;;0.70;;
30287;SDS011;17103;48.316;11.558;2023-03-26T06:55:42;3.25;;;0.50;;
30287;SDS011;17103;48.316;11.558;2023-03-26T06:58:09;5.90;;;0.90;;
30287;SDS011;17103;48.316;11.558;2023-03-26T07:00:36;3.95;;;0.98;;
30287;SDS011;17103;48.316;11.558;2023-03-26T07:03:02;3.20;;;1.10;;
30287;SDS011;17103;48.316;11.558;2023-03-26T07:05:28;4.45;;;0.60;;
30287;SDS011;17103;48.316;11.558;2023-03-26T07:07:54;1.75;;;0.60;;
30287;SDS011;17103;48.316;11.558;2023-03-26T07:10:20;1.77;;;0.65;;
30287;SDS011;17103;48.316;11.558;2023-03-26T07:12:45;2.35;;;0.55;;
30287;SDS011;17103;48.316;11.558;2023-03-26T07:15:11;3.20;;;0.93;;
30287;SDS011;17103;48.316;11.558;2023-03-26T07:17:37;2.63;;;0.68;;
30287;SDS011;17103;48.316;11.558;2023-03-26T07:20:05;4.03;;;0.65;;
30287;SDS011;17103;48.316;11.558;2023-03-26T07:22:33;2.03;;;0.57;;
30287;SDS011;17103;48.316;11.558;2023-03-26T07:24:59;3.47;;;0.73;;
30287;SDS011;17103;48.316;11.558;2023-03-26T07:27:30;7.32;;;0.93;;
30287;SDS011;17103;48.316;11.558;2023-03-26T07:30:04;4.35;;;0.82;;
30287;SDS011;17103;48.316;11.558;2023-03-26T07:32:33;2.72;;;0.63;;
30287;SDS011;17103;48.316;11.558;2023-03-26T07:44:24;7.35;;;1.10;;
30287;SDS011;17103;48.316;11.558;2023-03-26T07:46:59;4.30;;;1.20;;
30287;SDS011;17103;48.316;11.558;2023-03-26T07:49:28;3.90;;;0.88;;
30287;SDS011;17103;48.316;11.558;2023-03-26T07:51:57;5.07;;;0.85;;
30287;SDS011;17103;48.316;11.558;2023-03-26T07:54:23;2.35;;;0.50;;
30287;SDS011;17103;48.316;11.558;2023-03-26T08:05:31;3.38;;;0.60;;
30287;SDS011;17103;48.316;11.558;2023-03-26T08:16:13;1.88;;;0.40;;
30287;SDS011;17103;48.316;11.558;2023-03-26T08:21:33;5.93;;;1.48;;
30287;SDS011;17103;48.316;11.558;2023-03-26T08:24:12;3.53;;;0.50;;
30287;SDS011;17103;48.316;11.558;2023-03-26T08:30:17;5.88;;;1.10;;
30287;SDS011;17103;48.316;11.558;2023-03-26T08:32:48;5.53;;;1.55;;
30287;SDS011;17103;48.316;11.558;2023-03-26T08:35:28;5.63;;;1.58;;
30287;SDS011;17103;48.316;11.558;2023-03-26T08:37:57;5.80;;;1.60;;
30287;SDS011;17103;48.316;11.558;2023-03-26T08:43:35;1.92;;;0.73;;
30287;SDS011;17103;48.316;11.558;2023-03-26T09:04:20;4.40;;;0.55;;
30287;SDS011;17103;48.316;11.558;2023-03-26T09:33:20;3.45;;;0.52;;
30287;SDS011;17103;48.316;11.558;2023-03-26T09:38:52;3.78;;;0.82;;
30287;SDS011;17103;48.316;11.558;2023-03-26T09:41:29;5.30;;;1.10;;
30287;SDS011;17103;48.316;11.558;2023-03-26T09:46:40;3.58;;;1.30;;
30287;SDS011;17103;48.316;11.558;2023-03-26T10:11:59;4.32;;;1.52;;
30287;SDS011;17103;48.316;11.558;2023-03-26T10:40:29;3.65;;;0.63;;
30287;SDS011;17103;48.316;11.558;2023-03-26T10:51:44;1.90;;;0.75;;
30287;SDS011;17103;48.316;11.558;2023-03-26T10:56:56;3.28;;;1.63;;
30287;SDS011;17103;48.316;11.558;2023-03-26T10:59:30;4.70;;;1.35;;
30287;SDS011;17103;48.316;11.558;2023-03-26T11:02:29;5.57;;;1.25;;
30287;SDS011;17103;48.316;11.558;2023-03-26T11:05:19;2.17;;;1.38;;
30287;SDS011;17103;48.316;11.558;2023-03-26T11:07:58;4.07;;;0.95;;
30287;SDS011;17103;48.316;11.558;2023-03-26T11:15:59;1.50;;;1.00;;
30287;SDS011;17103;48.316;11.558;2023-03-26T11:18:54;1.20;;;0.63;;
30287;SDS011;17103;48.316;11.558;2023-03-26T11:21:32;2.20;;;0.70;;
30287;SDS011;17103;48.316;11.558;2023-03-26T11:24:26;2.70;;;0.60;;
30287;SDS011;17103;48.316;11.558;2023-03-26T11:27:12;2.55;;;0.60;;
30287;SDS011;17103;48.316;11.558;2023-03-26T11:33:10;2.95;;;0.63;;
30287;SDS011;17103;48.316;11.558;2023-03-26T11:41:01;3.25;;;1.60;;
30287;SDS011;17103;48.316;11.558;2023-03-26T11:43:35;1.95;;;1.58;;
30287;SDS011;17103;48.316;11.558;2023-03-26T11:46:05;8.57;;;1.95;;
30287;SDS011;17103;48.316;11.558;2023-03-26T11:48:42;1.65;;;1.30;;
30287;SDS011;17103;48.316;11.558;2023-03-26T11:51:21;1.23;;;0.68;;
30287;SDS011;17103;48.316;11.558;2023-03-26T11:53:56;2.25;;;1.50;;
30287;SDS011;17103;48.316;11.558;2023-03-26T11:56:30;2.30;;;1.15;;
30287;SDS011;17103;48.316;11.558;2023-03-26T12:01:51;2.33;;;0.60;;
30287;SDS011;17103;48.316;11.558;2023-03-26T12:04:26;1.65;;;0.40;;
30287;SDS011;17103;48.316;11.558;2023-03-26T12:07:08;1.52;;;0.60;;
30287;SDS011;17103;48.316;11.558;2023-03-26T12:09:54;1.27;;;0.43;;
30287;SDS011;17103;48.316;11.558;2023-03-26T12:12:25;2.05;;;0.40;;
30287;SDS011;17103;48.316;11.558;2023-03-26T12:14:53;0.50;;;0.40;;
30287;SDS011;17103;48.316;11.558;2023-03-26T12:20:29;1.88;;;0.30;;
30287;SDS011;17103;48.316;11.558;2023-03-26T12:22:58;0.28;;;0.28;;
30287;SDS011;17103;48.316;11.558;2023-03-26T12:30:40;0.63;;;0.22;;
30287;SDS011;17103;48.316;11.558;2023-03-26T12:33:23;0.10;;;0.10;;
30287;SDS011;17103;48.316;11.558;2023-03-26T12:35:52;0.32;;;0.20;;
30287;SDS011;17103;48.316;11.558;2023-03-26T12:41:02;0.38;;;0.10;;
30287;SDS011;17103;48.316;11.558;2023-03-26T12:46:19;3.47;;;0.82;;
30287;SDS011;17103;48.316;11.558;2023-03-26T12:48:52;1.38;;;0.30;;
30287;SDS011;17103;48.316;11.558;2023-03-26T12:54:05;0.35;;;0.10;;
30287;SDS011;17103;48.316;11.558;2023-03-26T13:02:56;0.88;;;0.30;;
30287;SDS011;17103;48.316;11.558;2023-03-26T13:05:36;0.63;;;0.20;;
30287;SDS011;17103;48.316;11.558;2023-03-26T13:17:29;0.75;;;0.20;;
30287;SDS011;17103;48.316;11.558;2023-03-26T13:23:12;2.15;;;0.68;;
30287;SDS011;17103;48.316;11.558;2023-03-26T13:29:08;1.48;;;0.20;;
30287;SDS011;17103;48.316;11.558;2023-03-26T13:31:38;1.25;;;0.20;;
30287;SDS011;17103;48.316;11.558;2023-03-26T13:47:53;0.85;;;0.20;;
30287;SDS011;17103;48.316;11.558;2023-03-26T13:50:26;1.77;;;0.22;;
30287;SDS011;17103;48.316;11.558;2023-03-26T13:52:59;0.70;;;0.30;;
30287;SDS011;17103;48.316;11.558;2023-03-26T13:55:40;0.93;;;0.45;;
30287;SDS011;17103;48.316;11.558;2023-03-26T13:58:33;0.90;;;0.40;;
30287;SDS011;17103;48.316;11.558;2023-03-26T14:01:50;0.65;;;0.20;;
30287;SDS011;17103;48.316;11.558;2023-03-26T14:04:16;1.13;;;0.22;;
30287;SDS011;17103;48.316;11.558;2023-03-26T14:09:27;0.60;;;0.20;;
30287;SDS011;17103;48.316;11.558;2023-03-26T14:14:27;0.63;;;0.20;;
30287;SDS011;17103;48.316;11.558;2023-03-26T14:16:58;1.07;;;0.20;;
30287;SDS011;17103;48.316;11.558;2023-03-26T14:24:49;0.50;;;0.20;;
30287;SDS011;17103;48.316;11.558;2023-03-26T14:27:39;2.42;;;0.90;;
30287;SDS011;17103;48.316;11.558;2023-03-26T14:33:33;1.15;;;0.47;;
30287;SDS011;17103;48.316;11.558;2023-03-26T14:44:35;0.57;;;0.30;;
30287;SDS011;17103;48.316;11.558;2023-03-26T14:49:50;0.38;;;0.10;;
30287;SDS011;17103;48.316;11.558;2023-03-26T14:55:13;0.30;;;0.10;;
30287;SDS011;17103;48.316;11.558;2023-03-26T14:58:20;0.40;;;0.20;;
30287;SDS011;17103;48.316;11.558;2023-03-26T15:01:28;1.45;;;0.15;;
30287;SDS011;17103;48.316;11.558;2023-03-26T15:05:24;1.52;;;0.10;;
30287;SDS011;17103;48.316;11.558;2023-03-26T15:22:22;0.63;;;0.20;;
30287;SDS011;17103;48.316;11.558;2023-03-26T15:25:56;1.00;;;0.20;;
30287;SDS011;17103;48.316;11.558;2023-03-26T15:42:29;1.35;;;0.57;;
30287;SDS011;17103;48.316;11.558;2023-03-26T15:47:55;0.30;;;0.17;;
30287;SDS011;17103;48.316;11.558;2023-03-26T15:56:16;0.85;;;0.30;;
30287;SDS011;17103;48.316;11.558;2023-03-26T15:58:47;0.82;;;0.47;;
30287;SDS011;17103;48.316;11.558;2023-03-26T16:15:38;6.10;;;1.00;;
30287;SDS011;17103;48.316;11.558;2023-03-26T16:23:28;0.70;;;0.32;;
30287;SDS011;17103;48.316;11.558;2023-03-26T16:33:49;1.75;;;0.65;;
30287;SDS011;17103;48.316;11.558;2023-03-26T16:39:21;1.98;;;0.50;;
30287;SDS011;17103;48.316;11.558;2023-03-26T16:42:46;1.73;;;0.88;;
30287;SDS011;17103;48.316;11.558;2023-03-26T16:47:35;4.35;;;0.60;;
30287;SDS011;17103;48.316;11.558;2023-03-26T16:50:24;1.33;;;0.50;;
30287;SDS011;17103;48.316;11.558;2023-03-26T16:58:36;3.20;;;0.70;;
30287;SDS011;17103;48.316;11.558;2023-03-26T17:04:13;0.82;;;0.40;;
30287;SDS011;17103;48.316;11.558;2023-03-26T17:12:11;3.47;;;1.80;;
30287;SDS011;17103;48.316;11.558;2023-03-26T17:15:05;3.92;;;2.03;;
30287;SDS011;17103;48.316;11.558;2023-03-26T17:20:29;2.15;;;0.98;;
30287;SDS011;17103;48.316;11.558;2023-03-26T17:28:37;2.05;;;1.38;;
30287;SDS011;17103;48.316;11.558;2023-03-26T17:33:52;3.05;;;1.63;;
30287;SDS011;17103;48.316;11.558;2023-03-26T17:36:21;3.15;;;0.98;;
30287;SDS011;17103;48.316;11.558;2023-03-26T17:38:56;1.35;;;0.50;;
30287;SDS011;17103;48.316;11.558;2023-03-26T17:44:51;3.08;;;1.00;;
30287;SDS011;17103;48.316;11.558;2023-03-26T17:47:21;0.85;;;0.50;;
30287;SDS011;17103;48.316;11.558;2023-03-26T17:50:01;2.63;;;0.63;;
30287;SDS011;17103;48.316;11.558;2023-03-26T17:52:34;0.95;;;0.40;;
30287;SDS011;17103;48.316;11.558;2023-03-26T17:55:12;1.40;;;0.30;;
30287;SDS011;17103;48.316;11.558;2023-03-26T17:57:44;1.50;;;0.40;;
30287;SDS011;17103;48.316;11.558;2023-03-26T18:00:21;1.13;;;0.30;;
30287;SDS011;17103;48.316;11.558;2023-03-26T18:02:53;1.27;;;0.20;;
30287;SDS011;17103;48.316;11.558;2023-03-26T18:05:22;1.17;;;0.40;;
30287;SDS011;17103;48.316;11.558;2023-03-26T18:10:31;0.90;;;0.22;;
30287;SDS011;17103;48.316;11.558;2023-03-26T18:16:10;0.70;;;0.30;;
30287;SDS011;17103;48.316;11.558;2023-03-26T18:18:58;0.40;;;0.20;;
30287;SDS011;17103;48.316;11.558;2023-03-26T18:21:31;1.20;;;0.40;;
30287;SDS011;17103;48.316;11.558;2023-03-26T18:24:00;0.75;;;0.40;;
30287;SDS011;17103;48.316;11.558;2023-03-26T18:26:32;0.25;;;0.20;;
30287;SDS011;17103;48.316;11.558;2023-03-26T18:29:19;0.32;;;0.20;;
30287;SDS011;17103;48.316;11.558;2023-03-26T18:31:51;1.02;;;0.30;;
30287;SDS011;17103;48.316;11.558;2023-03-26T18:34:19;0.80;;;0.50;;
30287;SDS011;17103;48.316;11.558;2023-03-26T18:36:46;0.60;;;0.32;;
30287;SDS011;17103;48.316;11.558;2023-03-26T18:39:24;0.40;;;0.20;;
30287;SDS011;17103;48.316;11.558;2023-03-26T18:41:50;0.63;;;0.20;;
30287;SDS011;17103;48.316;11.558;2023-03-26T18:44:16;2.33;;;1.05;;
30287;SDS011;17103;48.316;11.558;2023-03-26T18:46:43;0.93;;;0.40;;
30287;SDS011;17103;48.316;11.558;2023-03-26T18:49:10;0.45;;;0.20;;
30287;SDS011;17103;48.316;11.558;2023-03-26T18:51:38;0.43;;;0.20;;
30287;SDS011;17103;48.316;11.558;2023-03-26T18:54:05;0.55;;;0.20;;
30287;SDS011;17103;48.316;11.558;2023-03-26T18:56:37;0.77;;;0.30;;
30287;SDS011;17103;48.316;11.558;2023-03-26T19:01:55;0.90;;;0.40;;
30287;SDS011;17103;48.316;11.558;2023-03-26T19:04:23;0.75;;;0.60;;
30287;SDS011;17103;48.316;11.558;2023-03-26T19:06:50;0.57;;;0.20;;
30287;SDS011;17103;48.316;11.558;2023-03-26T19:09:19;1.13;;;0.50;;
30287;SDS011;17103;48.316;11.558;2023-03-26T19:11:55;2.63;;;1.00;;
30287;SDS011;17103;48.316;11.558;2023-03-26T19:14:23;5.55;;;2.70;;
30287;SDS011;17103;48.316;11.558;2023-03-26T19:16:53;5.63;;;2.78;;
30287;SDS011;17103;48.316;11.558;2023-03-26T19:19:25;6.38;;;3.40;;
30287;SDS011;17103;48.316;11.558;2023-03-26T19:22:01;4.20;;;2.45;;
30287;SDS011;17103;48.316;11.558;2023-03-26T19:24:30;2.67;;;1.52;;
30287;SDS011;17103;48.316;11.558;2023-03-26T19:26:56;1.55;;;0.93;;
30287;SDS011;17103;48.316;11.558;2023-03-26T19:29:24;0.80;;;0.40;;
30287;SDS011;17103;48.316;11.558;2023-03-26T19:31:52;1.98;;;0.20;;
30287;SDS011;17103;48.316;11.558;2023-03-26T19:37:01;1.52;;;0.20;;
30287;SDS011;17103;48.316;11.558;2023-03-26T19:42:13;0.25;;;0.10;;
30287;SDS011;17103;48.316;11.558;2023-03-26T19:44:42;0.45;;;0.20;;
30287;SDS011;17103;48.316;11.558;2023-03-26T19:47:15;0.30;;;0.20;;
30287;SDS011;17103;48.316;11.558;2023-03-26T19:49:49;0.40;;;0.20;;
30287;SDS011;17103;48.316;11.558;2023-03-26T19:52:19;0.52;;;0.30;;
30287;SDS011;17103;48.316;11.558;2023-03-26T19:55:00;0.77;;;0.28;;
30287;SDS011;17103;48.316;11.558;2023-03-26T19:57:29;0.60;;;0.22;;
30287;SDS011;17103;48.316;11.558;2023-03-26T19:59:56;0.93;;;0.20;;
30287;SDS011;17103;48.316;11.558;2023-03-26T20:02:22;0.98;;;0.40;;
30287;SDS011;17103;48.316;11.558;2023-03-26T20:04:49;0.52;;;0.30;;
30287;SDS011;17103;48.316;11.558;2023-03-26T20:07:17;0.10;;;0.10;;
30287;SDS011;17103;48.316;11.558;2023-03-26T20:09:51;1.98;;;0.20;;
30287;SDS011;17103;48.316;11.558;2023-03-26T20:12:18;0.30;;;0.25;;
30287;SDS011;17103;48.316;11.558;2023-03-26T20:14:44;0.93;;;0.28;;
30287;SDS011;17103;48.316;11.558;2023-03-26T20:17:13;0.70;;;0.30;;
30287;SDS011;17103;48.316;11.558;2023-03-26T20:19:42;1.58;;;0.30;;
30287;SDS011;17103;48.316;11.558;2023-03-26T20:22:14;1.40;;;0.40;;
30287;SDS011;17103;48.316;11.558;2023-03-26T20:24:41;1.67;;;0.47;;
30287;SDS011;17103;48.316;11.558;2023-03-26T20:27:08;4.57;;;1.13;;
30287;SDS011;17103;48.316;11.558;2023-03-26T20:29:37;5.60;;;2.88;;
30287;SDS011;17103;48.316;11.558;2023-03-26T20:32:03;4.43;;;2.13;;
30287;SDS011;17103;48.316;11.558;2023-03-26T20:34:33;3.60;;;1.70;;
30287;SDS011;17103;48.316;11.558;2023-03-26T20:36:58;2.00;;;1.40;;
30287;SDS011;17103;48.316;11.558;2023-03-26T20:39:24;1.33;;;0.30;;
30287;SDS011;17103;48.316;11.558;2023-03-26T20:41:51;0.63;;;0.20;;
30287;SDS011;17103;48.316;11.558;2023-03-26T20:44:18;0.68;;;0.30;;
30287;SDS011;17103;48.316;11.558;2023-03-26T20:46:46;0.65;;;0.20;;
30287;SDS011;17103;48.316;11.558;2023-03-26T20:49:12;1.05;;;0.30;;
30287;SDS011;17103;48.316;11.558;2023-03-26T20:51:39;1.40;;;0.40;;
30287;SDS011;17103;48.316;11.558;2023-03-26T20:54:22;0.60;;;0.30;;
30287;SDS011;17103;48.316;11.558;2023-03-26T20:56:50;0.40;;;0.10;;
30287;SDS011;17103;48.316;11.558;2023-03-26T20:59:18;0.28;;;0.20;;
30287;SDS011;17103;48.316;11.558;2023-03-26T21:01:46;0.20;;;0.10;;
30287;SDS011;17103;48.316;11.558;2023-03-26T21:04:13;1.50;;;0.22;;
30287;SDS011;17103;48.316;11.558;2023-03-26T21:06:43;1.00;;;0.10;;
30287;SDS011;17103;48.316;11.558;2023-03-26T21:09:13;0.25;;;0.10;;
30287;SDS011;17103;48.316;11.558;2023-03-26T21:11:49;0.55;;;0.20;;
30287;SDS011;17103;48.316;11.558;2023-03-26T21:14:30;0.05;;;0.00;;
30287;SDS011;17103;48.316;11.558;2023-03-26T21:17:05;0.17;;;0.10;;